Terminal Aerodrome Forecast
Issued by NWS

Home | Current Version | Previous Version | Text Only | Print | Product List | Glossary On
Versions: 1 2 3 4 5 6 7 8 9 10 11 12 13
000
FTUS42 KTBW 261737
TAFLAL
TAF
KLAL 261737Z 2618/2718 10007KT P6SM SCT050 SCT120
     FM270100 09004KT P6SM VCSH BKN045
     FM270300 11003KT P6SM SCT045
     FM270900 VRB03KT 6SM BR FEW025
     FM271400 12006KT P6SM FEW030 SCT250=

USA.gov is the U.S. government's official web portal to all federal, state and local government web resources and services.